Alsace — PB4786 — position and weather

sailwx.info

Track history (hours):
 
Tides and Currents Weather Stations Pressure Air Temp Water Temp Dewpoint Dewpoint Depression Visibility Wind Speed Wind Dir Waves Ship Positions

Alsace

Last reported at 2016-Jun-23 10:25 UTC. Time now 2016-Jun-27 06:01 UTC.
Position N 48°59' E 008°17'.

Length 178 m; draft 1.8 m.

Type: Ship. MMSI: 244660556.

Date/timePositionNaut miles runAvg speedWind from/ knotsBaromVisibWave heightAir tempDewpointWater temp
2016-Jun-23 10:25N 48°59' E 008°17'4 4.7
2016-Jun-23 09:33N 49°03' E 008°19'5 4.8
2016-Jun-23 08:34N 49°07' E 008°22'5 4.9
2016-Jun-23 07:33N 49°12' E 008°23'6 2.8
2016-Jun-23 05:29N 49°17' E 008°28'4 3.3
2016-Jun-23 04:21N 49°21' E 008°29'  
2016-Jun-18 09:33N 50°42' E 007°10'5 4.7
2016-Jun-18 08:33N 50°45' E 007°06'4 4.4
2016-Jun-18 07:33N 50°49' E 007°02'3 2.9
2016-Jun-18 06:33N 50°52' E 007°01'3 2.7
2016-Jun-18 05:31N 50°54' E 006°59'18 3.7
2016-Jun-18 00:33N 51°11' E 006°47'19 3.1
2016-Jun-17 18:33N 51°29' E 006°41'3 3.3
2016-Jun-17 17:33N 51°33' E 006°41'4 3.4
2016-Jun-17 16:29N 51°35' E 006°36'5 5.1
2016-Jun-17 15:33N 51°39' E 006°35'52 2.9
2016-Jun-16 21:15N 51°49' E 005°12'4 5.7
2016-Jun-16 20:28N 51°50' E 005°05'5 5.9
2016-Jun-16 19:33N 51°50' E 004°57'3 2.6
2016-Jun-16 18:33N 51°49' E 004°53'3 2.7
2016-Jun-16 17:33N 51°48' E 004°49'7 6.7
2016-Jun-16 16:33N 51°43' E 004°41'20 4.7
2016-Jun-16 12:18N 51°32' E 004°14'5 6.7
2016-Jun-16 11:30N 51°27' E 004°14'3 3.4
2016-Jun-16 10:34N 51°24' E 004°15'7 6.9
2016-Jun-16 09:34N 51°18' E 004°20'1 1.0
2016-Jun-16 08:34N 51°17' E 004°20'3 2.9
2016-Jun-16 07:34N 51°18' E 004°16'0 0.0
2016-Jun-16 06:32N 51°18' E 004°16'0 0.0
2016-Jun-16 05:31N 51°18' E 004°16'0 0.0
2016-Jun-16 04:34N 51°18' E 004°16'0 0.0
2016-Jun-16 03:33N 51°18' E 004°16'0 0.0
2016-Jun-16 02:32N 51°18' E 004°16'3 2.8
2016-Jun-16 01:33N 51°21' E 004°16'0 0.1
2016-Jun-16 00:33N 51°21' E 004°16'0 0.0
2016-Jun-15 23:33N 51°21' E 004°16'3 3.5
2016-Jun-15 22:33N 51°17' E 004°15'0 0.0
2016-Jun-15 21:33N 51°17' E 004°15'0 0.0
2016-Jun-15 20:33N 51°17' E 004°15'0 0.0
2016-Jun-15 19:33N 51°17' E 004°15'0 0.0
2016-Jun-15 18:33N 51°17' E 004°15'0 0.0
2016-Jun-15 17:33N 51°17' E 004°15'0 0.0
2016-Jun-15 16:33N 51°17' E 004°15'0 0.3
2016-Jun-15 15:33N 51°17' E 004°16'0 0.0
2016-Jun-15 14:33N 51°17' E 004°16'0 0.1
2016-Jun-15 13:33N 51°17' E 004°16'2 1.8
2016-Jun-15 12:33N 51°19' E 004°17'0 0.0
2016-Jun-15 11:33N 51°19' E 004°17'2 1.7
2016-Jun-15 10:33N 51°20' E 004°16'0 0.0
2016-Jun-15 09:33N 51°20' E 004°16'2 1.5
2016-Jun-15 08:33N 51°19' E 004°17'2 2.3
2016-Jun-15 07:33N 51°21' E 004°16'1 1.0
2016-Jun-15 06:33N 51°21' E 004°17'2 1.9
2016-Jun-15 05:33N 51°20' E 004°20'0 0.2
2016-Jun-15 04:33N 51°19' E 004°20'0 0.3
2016-Jun-15 03:33N 51°20' E 004°19'0 0.0
2016-Jun-15 02:33N 51°20' E 004°19'0 0.0
2016-Jun-15 01:34N 51°20' E 004°19'4 3.8
2016-Jun-15 00:32N 51°23' E 004°16'23 5.2
2016-Jun-14 20:13N 51°42' E 004°34'5 7.2
2016-Jun-14 19:33N 51°46' E 004°38'5 4.6
2016-Jun-14 18:34N 51°51' E 004°40'0 0.0
2016-Jun-14 17:33N 51°51' E 004°40'0 0.0
2016-Jun-14 16:32N 51°51' E 004°40'4 3.7
2016-Jun-14 15:33N 51°49' E 004°45'8 7.7
2016-Jun-14 14:33N 51°50' E 004°58'66 7.3
2016-Jun-14 05:31N 51°32' E 006°41'21 7.2
2016-Jun-14 02:33N 51°11' E 006°47'9 7.0
2016-Jun-14 01:20N 51°04' E 006°54'7 8.6
2016-Jun-14 00:29N 50°57' E 006°58'7 7.5
2016-Jun-13 23:29N 50°50' E 006°59'1010.1
2016-Jun-13 22:28N 50°42' E 007°10'  
Track history (hours):
 
Tides and Currents Weather Stations Pressure Air Temp Water Temp Dewpoint Dewpoint Depression Visibility Wind Speed Wind Dir Waves Ship Positions

Alsace

Last reported at 2016-Jun-23 10:25 UTC. Time now 2016-Jun-27 06:01 UTC.
Position N 48°59' E 008°17'.

Length 178 m; draft 1.8 m.

Type: Ship. MMSI: 244660556.

Date/timePositionNaut miles runAvg speedWind from/ knotsBaromVisibWave heightAir tempDewpointWater temp
2016-Jun-23 10:25N 48°59' E 008°17'4 4.7
2016-Jun-23 09:33N 49°03' E 008°19'5 4.8
2016-Jun-23 08:34N 49°07' E 008°22'5 4.9
2016-Jun-23 07:33N 49°12' E 008°23'6 2.8
2016-Jun-23 05:29N 49°17' E 008°28'4 3.3
2016-Jun-23 04:21N 49°21' E 008°29'  
2016-Jun-18 09:33N 50°42' E 007°10'5 4.7
2016-Jun-18 08:33N 50°45' E 007°06'4 4.4
2016-Jun-18 07:33N 50°49' E 007°02'3 2.9
2016-Jun-18 06:33N 50°52' E 007°01'3 2.7
2016-Jun-18 05:31N 50°54' E 006°59'18 3.7
2016-Jun-18 00:33N 51°11' E 006°47'19 3.1
2016-Jun-17 18:33N 51°29' E 006°41'3 3.3
2016-Jun-17 17:33N 51°33' E 006°41'4 3.4
2016-Jun-17 16:29N 51°35' E 006°36'5 5.1
2016-Jun-17 15:33N 51°39' E 006°35'52 2.9
2016-Jun-16 21:15N 51°49' E 005°12'4 5.7
2016-Jun-16 20:28N 51°50' E 005°05'5 5.9
2016-Jun-16 19:33N 51°50' E 004°57'3 2.6
2016-Jun-16 18:33N 51°49' E 004°53'3 2.7
2016-Jun-16 17:33N 51°48' E 004°49'7 6.7
2016-Jun-16 16:33N 51°43' E 004°41'20 4.7
2016-Jun-16 12:18N 51°32' E 004°14'5 6.7
2016-Jun-16 11:30N 51°27' E 004°14'3 3.4
2016-Jun-16 10:34N 51°24' E 004°15'7 6.9
2016-Jun-16 09:34N 51°18' E 004°20'1 1.0
2016-Jun-16 08:34N 51°17' E 004°20'3 2.9
2016-Jun-16 07:34N 51°18' E 004°16'0 0.0
2016-Jun-16 06:32N 51°18' E 004°16'0 0.0
2016-Jun-16 05:31N 51°18' E 004°16'0 0.0
2016-Jun-16 04:34N 51°18' E 004°16'0 0.0
2016-Jun-16 03:33N 51°18' E 004°16'0 0.0
2016-Jun-16 02:32N 51°18' E 004°16'3 2.8
2016-Jun-16 01:33N 51°21' E 004°16'0 0.1
2016-Jun-16 00:33N 51°21' E 004°16'0 0.0
2016-Jun-15 23:33N 51°21' E 004°16'3 3.5
2016-Jun-15 22:33N 51°17' E 004°15'0 0.0
2016-Jun-15 21:33N 51°17' E 004°15'0 0.0
2016-Jun-15 20:33N 51°17' E 004°15'0 0.0
2016-Jun-15 19:33N 51°17' E 004°15'0 0.0
2016-Jun-15 18:33N 51°17' E 004°15'0 0.0
2016-Jun-15 17:33N 51°17' E 004°15'0 0.0
2016-Jun-15 16:33N 51°17' E 004°15'0 0.3
2016-Jun-15 15:33N 51°17' E 004°16'0 0.0
2016-Jun-15 14:33N 51°17' E 004°16'0 0.1
2016-Jun-15 13:33N 51°17' E 004°16'2 1.8
2016-Jun-15 12:33N 51°19' E 004°17'0 0.0
2016-Jun-15 11:33N 51°19' E 004°17'2 1.7
2016-Jun-15 10:33N 51°20' E 004°16'0 0.0
2016-Jun-15 09:33N 51°20' E 004°16'2 1.5
2016-Jun-15 08:33N 51°19' E 004°17'2 2.3
2016-Jun-15 07:33N 51°21' E 004°16'1 1.0
2016-Jun-15 06:33N 51°21' E 004°17'2 1.9
2016-Jun-15 05:33N 51°20' E 004°20'0 0.2
2016-Jun-15 04:33N 51°19' E 004°20'0 0.3
2016-Jun-15 03:33N 51°20' E 004°19'0 0.0
2016-Jun-15 02:33N 51°20' E 004°19'0 0.0
2016-Jun-15 01:34N 51°20' E 004°19'4 3.8
2016-Jun-15 00:32N 51°23' E 004°16'23 5.2
2016-Jun-14 20:13N 51°42' E 004°34'5 7.2
2016-Jun-14 19:33N 51°46' E 004°38'5 4.6
2016-Jun-14 18:34N 51°51' E 004°40'0 0.0
2016-Jun-14 17:33N 51°51' E 004°40'0 0.0
2016-Jun-14 16:32N 51°51' E 004°40'4 3.7
2016-Jun-14 15:33N 51°49' E 004°45'8 7.7
2016-Jun-14 14:33N 51°50' E 004°58'66 7.3
2016-Jun-14 05:31N 51°32' E 006°41'21 7.2
2016-Jun-14 02:33N 51°11' E 006°47'9 7.0
2016-Jun-14 01:20N 51°04' E 006°54'7 8.6
2016-Jun-14 00:29N 50°57' E 006°58'7 7.5
2016-Jun-13 23:29N 50°50' E 006°59'1010.1
2016-Jun-13 22:28N 50°42' E 007°10'  

Dump ship's entire track history